sensor_id;sensor_type;location;lat;lon;timestamp;temperature;humidity
39951;DHT22;25629;51.444;-2.606;2023-07-29T00:00:45;17.40;98.50
39951;DHT22;25629;51.444;-2.606;2023-07-29T00:03:11;17.40;97.00
39951;DHT22;25629;51.444;-2.606;2023-07-29T00:05:37;17.30;94.70
39951;DHT22;25629;51.444;-2.606;2023-07-29T00:08:03;17.30;92.60
39951;DHT22;25629;51.444;-2.606;2023-07-29T00:10:28;17.30;90.40
39951;DHT22;25629;51.444;-2.606;2023-07-29T00:12:54;17.30;89.80
39951;DHT22;25629;51.444;-2.606;2023-07-29T00:15:19;17.30;87.30
39951;DHT22;25629;51.444;-2.606;2023-07-29T00:17:45;17.30;84.30
39951;DHT22;25629;51.444;-2.606;2023-07-29T00:20:11;17.30;80.10
39951;DHT22;25629;51.444;-2.606;2023-07-29T00:22:36;17.30;79.60
39951;DHT22;25629;51.444;-2.606;2023-07-29T00:25:02;17.30;81.10
39951;DHT22;25629;51.444;-2.606;2023-07-29T00:27:27;17.20;86.60
39951;DHT22;25629;51.444;-2.606;2023-07-29T00:29:53;17.30;82.20
39951;DHT22;25629;51.444;-2.606;2023-07-29T00:32:18;17.30;83.40
39951;DHT22;25629;51.444;-2.606;2023-07-29T00:34:44;17.30;88.90
39951;DHT22;25629;51.444;-2.606;2023-07-29T00:37:09;17.30;84.20
39951;DHT22;25629;51.444;-2.606;2023-07-29T00:39:36;17.30;85.00
39951;DHT22;25629;51.444;-2.606;2023-07-29T00:42:02;17.20;84.90
39951;DHT22;25629;51.444;-2.606;2023-07-29T00:44:28;17.20;87.50
39951;DHT22;25629;51.444;-2.606;2023-07-29T00:46:53;17.20;89.50
39951;DHT22;25629;51.444;-2.606;2023-07-29T00:49:20;17.30;91.10
39951;DHT22;25629;51.444;-2.606;2023-07-29T00:51:46;17.20;86.70
39951;DHT22;25629;51.444;-2.606;2023-07-29T00:54:12;17.20;89.60
39951;DHT22;25629;51.444;-2.606;2023-07-29T00:56:38;17.20;89.30
39951;DHT22;25629;51.444;-2.606;2023-07-29T00:59:04;17.20;86.80
39951;DHT22;25629;51.444;-2.606;2023-07-29T01:01:30;17.20;90.30
39951;DHT22;25629;51.444;-2.606;2023-07-29T01:03:56;17.20;89.90
39951;DHT22;25629;51.444;-2.606;2023-07-29T01:09:01;17.30;85.60
39951;DHT22;25629;51.444;-2.606;2023-07-29T01:16:34;17.30;85.60
39951;DHT22;25629;51.444;-2.606;2023-07-29T01:19:05;17.20;84.90
39951;DHT22;25629;51.444;-2.606;2023-07-29T01:21:31;17.20;85.80
39951;DHT22;25629;51.444;-2.606;2023-07-29T01:23:58;17.20;84.00
39951;DHT22;25629;51.444;-2.606;2023-07-29T01:26:24;17.30;87.60
39951;DHT22;25629;51.444;-2.606;2023-07-29T01:28:50;17.30;83.00
39951;DHT22;25629;51.444;-2.606;2023-07-29T01:33:58;17.20;81.30
39951;DHT22;25629;51.444;-2.606;2023-07-29T01:36:25;17.20;79.50
39951;DHT22;25629;51.444;-2.606;2023-07-29T01:38:52;17.20;81.30
39951;DHT22;25629;51.444;-2.606;2023-07-29T01:41:20;17.20;84.90
39951;DHT22;25629;51.444;-2.606;2023-07-29T01:43:45;17.20;80.00
39951;DHT22;25629;51.444;-2.606;2023-07-29T01:46:12;17.20;76.20
39951;DHT22;25629;51.444;-2.606;2023-07-29T01:48:38;17.20;74.70
39951;DHT22;25629;51.444;-2.606;2023-07-29T01:51:03;17.20;73.40
39951;DHT22;25629;51.444;-2.606;2023-07-29T01:53:29;17.20;72.50
39951;DHT22;25629;51.444;-2.606;2023-07-29T01:55:55;17.20;72.20
39951;DHT22;25629;51.444;-2.606;2023-07-29T01:58:22;17.10;70.30
39951;DHT22;25629;51.444;-2.606;2023-07-29T02:00:47;17.10;68.70
39951;DHT22;25629;51.444;-2.606;2023-07-29T02:03:13;17.10;69.20
39951;DHT22;25629;51.444;-2.606;2023-07-29T02:05:39;17.10;69.20
39951;DHT22;25629;51.444;-2.606;2023-07-29T02:08:04;17.00;70.80
39951;DHT22;25629;51.444;-2.606;2023-07-29T02:10:30;17.00;71.20
39951;DHT22;25629;51.444;-2.606;2023-07-29T02:12:55;17.00;73.60
39951;DHT22;25629;51.444;-2.606;2023-07-29T02:15:21;16.90;73.80
39951;DHT22;25629;51.444;-2.606;2023-07-29T02:17:47;16.90;74.10
39951;DHT22;25629;51.444;-2.606;2023-07-29T02:20:12;16.90;74.50
39951;DHT22;25629;51.444;-2.606;2023-07-29T02:22:38;16.90;76.30
39951;DHT22;25629;51.444;-2.606;2023-07-29T02:25:04;16.90;74.70
39951;DHT22;25629;51.444;-2.606;2023-07-29T02:27:29;16.90;69.60
39951;DHT22;25629;51.444;-2.606;2023-07-29T02:29:55;16.80;70.20
39951;DHT22;25629;51.444;-2.606;2023-07-29T02:32:20;16.90;62.60
39951;DHT22;25629;51.444;-2.606;2023-07-29T02:34:46;16.90;64.00
39951;DHT22;25629;51.444;-2.606;2023-07-29T02:37:12;16.90;59.40
39951;DHT22;25629;51.444;-2.606;2023-07-29T02:39:37;16.90;57.70
39951;DHT22;25629;51.444;-2.606;2023-07-29T02:42:03;16.90;54.80
39951;DHT22;25629;51.444;-2.606;2023-07-29T02:44:29;16.90;53.30
39951;DHT22;25629;51.444;-2.606;2023-07-29T02:46:54;16.90;53.90
39951;DHT22;25629;51.444;-2.606;2023-07-29T02:49:21;16.90;53.50
39951;DHT22;25629;51.444;-2.606;2023-07-29T02:51:47;16.90;51.30
39951;DHT22;25629;51.444;-2.606;2023-07-29T02:54:12;16.90;51.40
39951;DHT22;25629;51.444;-2.606;2023-07-29T02:56:38;16.90;55.40
39951;DHT22;25629;51.444;-2.606;2023-07-29T02:59:03;16.80;55.60
39951;DHT22;25629;51.444;-2.606;2023-07-29T03:01:30;16.80;60.70
39951;DHT22;25629;51.444;-2.606;2023-07-29T03:03:56;16.90;58.20
39951;DHT22;25629;51.444;-2.606;2023-07-29T03:06:21;16.90;58.10
39951;DHT22;25629;51.444;-2.606;2023-07-29T03:08:47;16.90;59.90
39951;DHT22;25629;51.444;-2.606;2023-07-29T03:11:13;16.80;62.20
39951;DHT22;25629;51.444;-2.606;2023-07-29T03:13:39;16.90;62.20
39951;DHT22;25629;51.444;-2.606;2023-07-29T03:16:07;16.80;59.70
39951;DHT22;25629;51.444;-2.606;2023-07-29T03:18:32;16.90;60.20
39951;DHT22;25629;51.444;-2.606;2023-07-29T03:20:58;16.90;60.10
39951;DHT22;25629;51.444;-2.606;2023-07-29T03:23:24;16.80;62.40
39951;DHT22;25629;51.444;-2.606;2023-07-29T03:25:49;16.80;65.50
39951;DHT22;25629;51.444;-2.606;2023-07-29T03:28:25;16.80;63.50
39951;DHT22;25629;51.444;-2.606;2023-07-29T03:30:50;16.80;65.30
39951;DHT22;25629;51.444;-2.606;2023-07-29T03:33:16;16.80;67.00
39951;DHT22;25629;51.444;-2.606;2023-07-29T03:35:41;16.70;70.00
39951;DHT22;25629;51.444;-2.606;2023-07-29T03:38:10;16.70;73.80
39951;DHT22;25629;51.444;-2.606;2023-07-29T03:40:36;16.70;75.10
39951;DHT22;25629;51.444;-2.606;2023-07-29T03:43:01;16.70;76.60
39951;DHT22;25629;51.444;-2.606;2023-07-29T03:45:27;16.70;77.10
39951;DHT22;25629;51.444;-2.606;2023-07-29T03:47:52;16.70;77.70
39951;DHT22;25629;51.444;-2.606;2023-07-29T03:50:18;16.70;77.00
39951;DHT22;25629;51.444;-2.606;2023-07-29T03:52:43;16.70;73.10
39951;DHT22;25629;51.444;-2.606;2023-07-29T03:55:09;16.70;75.50
39951;DHT22;25629;51.444;-2.606;2023-07-29T03:57:34;16.70;75.70
39951;DHT22;25629;51.444;-2.606;2023-07-29T04:00:00;16.60;78.20
39951;DHT22;25629;51.444;-2.606;2023-07-29T04:02:26;16.60;78.80
39951;DHT22;25629;51.444;-2.606;2023-07-29T04:04:51;16.60;83.20
39951;DHT22;25629;51.444;-2.606;2023-07-29T04:07:17;16.60;84.10
39951;DHT22;25629;51.444;-2.606;2023-07-29T04:09:42;16.60;82.40
39951;DHT22;25629;51.444;-2.606;2023-07-29T04:12:09;16.60;84.10
39951;DHT22;25629;51.444;-2.606;2023-07-29T04:14:35;16.60;83.10
39951;DHT22;25629;51.444;-2.606;2023-07-29T04:17:00;16.60;86.10
39951;DHT22;25629;51.444;-2.606;2023-07-29T04:19:26;16.70;83.90
39951;DHT22;25629;51.444;-2.606;2023-07-29T04:21:51;16.70;83.80
39951;DHT22;25629;51.444;-2.606;2023-07-29T04:24:17;16.70;79.70
39951;DHT22;25629;51.444;-2.606;2023-07-29T04:26:45;16.80;76.80
39951;DHT22;25629;51.444;-2.606;2023-07-29T04:29:11;16.80;71.90
39951;DHT22;25629;51.444;-2.606;2023-07-29T04:31:36;16.70;79.50
39951;DHT22;25629;51.444;-2.606;2023-07-29T04:34:02;16.60;89.30
39951;DHT22;25629;51.444;-2.606;2023-07-29T04:36:28;16.60;92.70
39951;DHT22;25629;51.444;-2.606;2023-07-29T04:38:53;16.50;95.50
39951;DHT22;25629;51.444;-2.606;2023-07-29T04:41:19;16.50;97.50
39951;DHT22;25629;51.444;-2.606;2023-07-29T04:43:44;16.40;97.60
39951;DHT22;25629;51.444;-2.606;2023-07-29T04:46:10;16.40;97.00
39951;DHT22;25629;51.444;-2.606;2023-07-29T04:48:35;16.30;98.30
39951;DHT22;25629;51.444;-2.606;2023-07-29T04:51:01;16.20;99.70
39951;DHT22;25629;51.444;-2.606;2023-07-29T04:53:26;16.20;99.50
39951;DHT22;25629;51.444;-2.606;2023-07-29T04:55:52;16.20;99.90
39951;DHT22;25629;51.444;-2.606;2023-07-29T04:58:17;16.10;99.90
39951;DHT22;25629;51.444;-2.606;2023-07-29T05:00:43;16.00;99.90
39951;DHT22;25629;51.444;-2.606;2023-07-29T05:03:08;16.00;99.90
39951;DHT22;25629;51.444;-2.606;2023-07-29T05:05:34;15.90;99.90
39951;DHT22;25629;51.444;-2.606;2023-07-29T05:07:59;15.90;99.90
39951;DHT22;25629;51.444;-2.606;2023-07-29T05:10:25;15.90;99.90
39951;DHT22;25629;51.444;-2.606;2023-07-29T05:12:50;15.90;99.90
39951;DHT22;25629;51.444;-2.606;2023-07-29T05:15:16;15.90;99.90
39951;DHT22;25629;51.444;-2.606;2023-07-29T05:17:42;15.90;99.90
39951;DHT22;25629;51.444;-2.606;2023-07-29T05:20:07;15.90;99.90
39951;DHT22;25629;51.444;-2.606;2023-07-29T05:22:33;15.90;99.90
39951;DHT22;25629;51.444;-2.606;2023-07-29T05:24:59;15.90;99.90
39951;DHT22;25629;51.444;-2.606;2023-07-29T05:27:24;15.90;99.90
39951;DHT22;25629;51.444;-2.606;2023-07-29T05:29:50;16.00;99.90
39951;DHT22;25629;51.444;-2.606;2023-07-29T05:32:15;16.10;99.90
39951;DHT22;25629;51.444;-2.606;2023-07-29T05:34:41;16.10;99.90
39951;DHT22;25629;51.444;-2.606;2023-07-29T05:37:06;16.20;99.90
39951;DHT22;25629;51.444;-2.606;2023-07-29T05:39:32;16.40;99.90
39951;DHT22;25629;51.444;-2.606;2023-07-29T05:41:58;16.50;99.90
39951;DHT22;25629;51.444;-2.606;2023-07-29T05:44:24;16.60;99.90
39951;DHT22;25629;51.444;-2.606;2023-07-29T05:46:49;16.70;99.90
39951;DHT22;25629;51.444;-2.606;2023-07-29T05:49:15;16.70;99.90
39951;DHT22;25629;51.444;-2.606;2023-07-29T05:51:40;16.80;99.90
39951;DHT22;25629;51.444;-2.606;2023-07-29T05:54:06;16.90;98.50
39951;DHT22;25629;51.444;-2.606;2023-07-29T05:56:32;16.90;97.70
39951;DHT22;25629;51.444;-2.606;2023-07-29T05:58:57;16.90;95.50
39951;DHT22;25629;51.444;-2.606;2023-07-29T06:01:23;17.00;96.00
39951;DHT22;25629;51.444;-2.606;2023-07-29T06:03:48;17.00;93.10
39951;DHT22;25629;51.444;-2.606;2023-07-29T06:06:14;16.90;92.70
39951;DHT22;25629;51.444;-2.606;2023-07-29T06:08:39;17.00;93.90
39951;DHT22;25629;51.444;-2.606;2023-07-29T06:11:05;17.00;92.00
39951;DHT22;25629;51.444;-2.606;2023-07-29T06:13:32;17.00;90.70
39951;DHT22;25629;51.444;-2.606;2023-07-29T06:15:57;16.90;91.00
39951;DHT22;25629;51.444;-2.606;2023-07-29T06:18:23;17.00;91.20
39951;DHT22;25629;51.444;-2.606;2023-07-29T06:20:51;16.90;91.10
39951;DHT22;25629;51.444;-2.606;2023-07-29T06:23:17;16.90;81.80
39951;DHT22;25629;51.444;-2.606;2023-07-29T06:25:43;16.90;88.50
39951;DHT22;25629;51.444;-2.606;2023-07-29T06:28:09;17.10;86.50
39951;DHT22;25629;51.444;-2.606;2023-07-29T06:30:34;17.30;79.30
39951;DHT22;25629;51.444;-2.606;2023-07-29T06:33:00;17.50;64.10
39951;DHT22;25629;51.444;-2.606;2023-07-29T06:35:25;17.70;58.50
39951;DHT22;25629;51.444;-2.606;2023-07-29T06:37:51;17.80;25.30
39951;DHT22;25629;51.444;-2.606;2023-07-29T06:40:16;17.90;11.20
39951;DHT22;25629;51.444;-2.606;2023-07-29T06:42:42;18.00;6.70
39951;DHT22;25629;51.444;-2.606;2023-07-29T06:45:08;18.00;1.00
